EZS68GV LSGG-LGAV
Flight info
| Callsign | EZS68GV |
|---|---|
| Flight time | 2h 19m |
| Altitude | 37000 |
| Route | MEDAM DCT NITAM DCT MOGBO DCT ITCAP DCT KUGIX DCT DIVKU DCT NOSTO UN7 NEMES |
| Aircraft | A320/M-SDE2E3FGHIJ1RWXYZ/LB1 |
Departure
| Time | 2026-05-04 04:06 |
|---|---|
| Airport | Geneva International Airport (LSGG) |
Arrival
| Time | 2026-05-04 06:25 |
|---|---|
| Airport | Athens Eleftherios Venizelos International Airport (LGAV) |
| Time | Latitude | Longitude | Altitude | Speed | Heading |
|---|---|---|---|---|---|
| 2026-05-04 03:14 | 46.23223 | 6.10497 | 1403 ft | 0 kts | 270° |
| 2026-05-04 03:58 | 46.23223 | 6.10483 | 1398 ft | 3 kts | 271° |
| 2026-05-04 03:58 | 46.23231 | 6.10449 | 1402 ft | 4 kts | 311° |
| 2026-05-04 03:59 | 46.23268 | 6.10453 | 1394 ft | 7 kts | 28° |
| 2026-05-04 03:59 | 46.23310 | 6.10512 | 1397 ft | 10 kts | 45° |
| 2026-05-04 03:59 | 46.23364 | 6.10592 | 1402 ft | 12 kts | 46° |
| 2026-05-04 03:59 | 46.23431 | 6.10679 | 1400 ft | 12 kts | 45° |
| 2026-05-04 04:00 | 46.23494 | 6.10771 | 1389 ft | 14 kts | 46° |
| 2026-05-04 04:00 | 46.23559 | 6.10866 | 1388 ft | 12 kts | 45° |
| 2026-05-04 04:00 | 46.23621 | 6.10957 | 1388 ft | 16 kts | 45° |
| 2026-05-04 04:00 | 46.23711 | 6.11090 | 1383 ft | 21 kts | 45° |
| 2026-05-04 04:01 | 46.23839 | 6.11277 | 1374 ft | 26 kts | 45° |
| 2026-05-04 04:01 | 46.23953 | 6.11444 | 1374 ft | 25 kts | 45° |
| 2026-05-04 04:01 | 46.24072 | 6.11619 | 1369 ft | 24 kts | 45° |
| 2026-05-04 04:01 | 46.24173 | 6.11766 | 1364 ft | 18 kts | 46° |
| 2026-05-04 04:02 | 46.24270 | 6.11910 | 1362 ft | 21 kts | 45° |
| 2026-05-04 04:02 | 46.24371 | 6.12059 | 1367 ft | 20 kts | 45° |
| 2026-05-04 04:02 | 46.24463 | 6.12192 | 1372 ft | 18 kts | 45° |
| 2026-05-04 04:02 | 46.24553 | 6.12324 | 1372 ft | 19 kts | 46° |
| 2026-05-04 04:03 | 46.24655 | 6.12475 | 1366 ft | 23 kts | 45° |
| 2026-05-04 04:03 | 46.24753 | 6.12617 | 1362 ft | 17 kts | 45° |
| 2026-05-04 04:03 | 46.24853 | 6.12691 | 1364 ft | 13 kts | 17° |
| 2026-05-04 04:03 | 46.24936 | 6.12729 | 1367 ft | 11 kts | 16° |
| 2026-05-04 04:04 | 46.25001 | 6.12723 | 1370 ft | 9 kts | 335° |
| 2026-05-04 04:04 | 46.25004 | 6.12654 | 1371 ft | 4 kts | 223° |
| 2026-05-04 04:04 | 46.25000 | 6.12648 | 1371 ft | 0 kts | 224° |
| 2026-05-04 04:05 | 46.24990 | 6.12634 | 1372 ft | 11 kts | 224° |
| 2026-05-04 04:05 | 46.24788 | 6.12337 | 1372 ft | 78 kts | 225° |
| 2026-05-04 04:05 | 46.24258 | 6.11558 | 1374 ft | 137 kts | 225° |
| 2026-05-04 04:06 | 46.23482 | 6.10422 | 1469 ft | 173 kts | 225° |
| 2026-05-04 04:06 | 46.22654 | 6.09201 | 2197 ft | 169 kts | 226° |
| 2026-05-04 04:06 | 46.21831 | 6.07988 | 2928 ft | 169 kts | 225° |
| 2026-05-04 04:06 | 46.21006 | 6.06775 | 3584 ft | 169 kts | 225° |
| 2026-05-04 04:07 | 46.20181 | 6.05565 | 4210 ft | 169 kts | 224° |
| 2026-05-04 04:07 | 46.19343 | 6.04339 | 4724 ft | 178 kts | 225° |
| 2026-05-04 04:07 | 46.18420 | 6.02991 | 4984 ft | 200 kts | 224° |
| 2026-05-04 04:07 | 46.17381 | 6.01479 | 5209 ft | 225 kts | 224° |
| 2026-05-04 04:08 | 46.16218 | 5.99787 | 5556 ft | 249 kts | 224° |
| 2026-05-04 04:08 | 46.14962 | 5.97927 | 6092 ft | 266 kts | 224° |
| 2026-05-04 04:08 | 46.13673 | 5.95991 | 6997 ft | 266 kts | 222° |
| 2026-05-04 04:08 | 46.12217 | 5.94405 | 7941 ft | 262 kts | 202° |
| 2026-05-04 04:09 | 46.10466 | 5.93782 | 8844 ft | 261 kts | 181° |
| 2026-05-04 04:09 | 46.08674 | 5.94178 | 9729 ft | 264 kts | 161° |
| 2026-05-04 04:09 | 46.07083 | 5.95548 | 10484 ft | 275 kts | 142° |
| 2026-05-04 04:09 | 46.05899 | 5.97871 | 10719 ft | 306 kts | 115° |
| 2026-05-04 04:10 | 46.05432 | 6.00970 | 11125 ft | 327 kts | 100° |
| 2026-05-04 04:10 | 46.05137 | 6.04252 | 11772 ft | 334 kts | 101° |
| 2026-05-04 04:10 | 46.04816 | 6.07592 | 12447 ft | 339 kts | 103° |
| 2026-05-04 04:10 | 46.04124 | 6.10839 | 13094 ft | 341 kts | 118° |
| 2026-05-04 04:11 | 46.02891 | 6.13749 | 13750 ft | 342 kts | 132° |
| 2026-05-04 04:11 | 46.01198 | 6.16142 | 14332 ft | 342 kts | 146° |
| 2026-05-04 04:11 | 45.99270 | 6.18165 | 14947 ft | 345 kts | 148° |
| 2026-05-04 04:11 | 45.97326 | 6.20203 | 15573 ft | 348 kts | 148° |
| 2026-05-04 04:12 | 45.95362 | 6.22269 | 16204 ft | 351 kts | 147° |
| 2026-05-04 04:12 | 45.93384 | 6.24354 | 16826 ft | 355 kts | 147° |
| 2026-05-04 04:12 | 45.91389 | 6.26460 | 17472 ft | 358 kts | 147° |
| 2026-05-04 04:12 | 45.89373 | 6.28592 | 18089 ft | 361 kts | 147° |
| 2026-05-04 04:13 | 45.87344 | 6.30743 | 18618 ft | 364 kts | 147° |
| 2026-05-04 04:13 | 45.85307 | 6.32913 | 19137 ft | 366 kts | 147° |
| 2026-05-04 04:13 | 45.83255 | 6.35104 | 19665 ft | 369 kts | 147° |
| 2026-05-04 04:13 | 45.81190 | 6.37304 | 20193 ft | 372 kts | 147° |
| 2026-05-04 04:14 | 45.79105 | 6.39525 | 20724 ft | 374 kts | 147° |
| 2026-05-04 04:14 | 45.77005 | 6.41760 | 21247 ft | 377 kts | 147° |
| 2026-05-04 04:14 | 45.74888 | 6.44005 | 21766 ft | 380 kts | 147° |
| 2026-05-04 04:14 | 45.72755 | 6.46262 | 22246 ft | 383 kts | 147° |
| 2026-05-04 04:15 | 45.70605 | 6.48532 | 22768 ft | 385 kts | 147° |
| 2026-05-04 04:15 | 45.68446 | 6.50805 | 23214 ft | 387 kts | 147° |
| 2026-05-04 04:15 | 45.66266 | 6.53101 | 23645 ft | 390 kts | 147° |
| 2026-05-04 04:15 | 45.64076 | 6.55410 | 24021 ft | 392 kts | 147° |
| 2026-05-04 04:16 | 45.61877 | 6.57726 | 24444 ft | 394 kts | 147° |
| 2026-05-04 04:16 | 45.59664 | 6.60056 | 24852 ft | 396 kts | 147° |
| 2026-05-04 04:16 | 45.57445 | 6.62388 | 25265 ft | 397 kts | 148° |
| 2026-05-04 04:16 | 45.55213 | 6.64730 | 25670 ft | 399 kts | 148° |
| 2026-05-04 04:17 | 45.52965 | 6.67088 | 26073 ft | 402 kts | 148° |
| 2026-05-04 04:17 | 45.50706 | 6.69454 | 26466 ft | 405 kts | 148° |
| 2026-05-04 04:17 | 45.48430 | 6.71834 | 26881 ft | 407 kts | 148° |
| 2026-05-04 04:17 | 45.46140 | 6.74226 | 27270 ft | 409 kts | 148° |
| 2026-05-04 04:18 | 45.43830 | 6.76618 | 27649 ft | 411 kts | 148° |
| 2026-05-04 04:18 | 45.41498 | 6.78983 | 28040 ft | 412 kts | 149° |
| 2026-05-04 04:18 | 45.39145 | 6.81336 | 28405 ft | 415 kts | 149° |
| 2026-05-04 04:18 | 45.36777 | 6.83687 | 28800 ft | 417 kts | 149° |
| 2026-05-04 04:19 | 45.34392 | 6.86051 | 29176 ft | 418 kts | 149° |
| 2026-05-04 04:19 | 45.32004 | 6.88428 | 29518 ft | 420 kts | 149° |
| 2026-05-04 04:19 | 45.29602 | 6.90825 | 29891 ft | 423 kts | 149° |
| 2026-05-04 04:19 | 45.27198 | 6.93244 | 30229 ft | 426 kts | 147° |
| 2026-05-04 04:20 | 45.24959 | 6.96036 | 30482 ft | 432 kts | 140° |
| 2026-05-04 04:20 | 45.22805 | 6.99037 | 30748 ft | 435 kts | 140° |
| 2026-05-04 04:20 | 45.20637 | 7.02035 | 31035 ft | 437 kts | 140° |
| 2026-05-04 04:20 | 45.18479 | 7.05001 | 31319 ft | 438 kts | 140° |
| 2026-05-04 04:21 | 45.16284 | 7.08008 | 31643 ft | 439 kts | 140° |
| 2026-05-04 04:21 | 45.14090 | 7.11007 | 32050 ft | 437 kts | 140° |
| 2026-05-04 04:21 | 45.11907 | 7.13997 | 32448 ft | 436 kts | 140° |
| 2026-05-04 04:21 | 45.10509 | 7.16122 | 32673 ft | 438 kts | 134° |
| 2026-05-04 04:22 | 45.08123 | 7.20764 | 33077 ft | 441 kts | 129° |
| 2026-05-04 04:22 | 45.06364 | 7.24322 | 33420 ft | 441 kts | 129° |
| 2026-05-04 04:22 | 45.04609 | 7.27865 | 33772 ft | 440 kts | 129° |
| 2026-05-04 04:22 | 45.03421 | 7.30259 | 34004 ft | 440 kts | 130° |
| 2026-05-04 04:23 | 45.01662 | 7.33793 | 34315 ft | 439 kts | 130° |
| 2026-05-04 04:23 | 44.99336 | 7.38462 | 34601 ft | 439 kts | 129° |
| 2026-05-04 04:23 | 44.98218 | 7.40916 | 34776 ft | 442 kts | 124° |
| 2026-05-04 04:23 | 44.96853 | 7.44833 | 35021 ft | 446 kts | 119° |
| 2026-05-04 04:24 | 44.95569 | 7.48810 | 35263 ft | 446 kts | 118° |
| 2026-05-04 04:24 | 44.94283 | 7.52799 | 35490 ft | 446 kts | 118° |
| 2026-05-04 04:24 | 44.92998 | 7.56780 | 35713 ft | 446 kts | 118° |
| 2026-05-04 04:24 | 44.91707 | 7.60772 | 35926 ft | 447 kts | 118° |
| 2026-05-04 04:25 | 44.90414 | 7.64758 | 36133 ft | 447 kts | 118° |
| 2026-05-04 04:25 | 44.89118 | 7.68739 | 36363 ft | 447 kts | 118° |
| 2026-05-04 04:25 | 44.87822 | 7.72716 | 36580 ft | 447 kts | 118° |
| 2026-05-04 04:25 | 44.86521 | 7.76696 | 36793 ft | 447 kts | 118° |
| 2026-05-04 04:26 | 44.85215 | 7.80677 | 37000 ft | 447 kts | 118° |
| 2026-05-04 04:26 | 44.83903 | 7.84660 | 37088 ft | 448 kts | 118° |
| 2026-05-04 04:26 | 44.81284 | 7.92633 | 37085 ft | 448 kts | 118° |
| 2026-05-04 04:27 | 44.78680 | 8.00548 | 37086 ft | 449 kts | 118° |
| 2026-05-04 04:27 | 44.76043 | 8.08540 | 37098 ft | 451 kts | 118° |
| 2026-05-04 04:28 | 44.73393 | 8.16538 | 37095 ft | 451 kts | 118° |
| 2026-05-04 04:28 | 44.70731 | 8.24536 | 37099 ft | 451 kts | 118° |
| 2026-05-04 04:29 | 44.68055 | 8.32581 | 37097 ft | 451 kts | 118° |
| 2026-05-04 04:29 | 44.65409 | 8.40512 | 37100 ft | 451 kts | 118° |
| 2026-05-04 04:30 | 44.62735 | 8.48490 | 37100 ft | 452 kts | 118° |
| 2026-05-04 04:30 | 44.60049 | 8.56472 | 37105 ft | 452 kts | 118° |
| 2026-05-04 04:31 | 44.57353 | 8.64448 | 37113 ft | 453 kts | 119° |
| 2026-05-04 04:31 | 44.54637 | 8.72470 | 37111 ft | 452 kts | 118° |
| 2026-05-04 04:32 | 44.51938 | 8.80434 | 37127 ft | 452 kts | 118° |
| 2026-05-04 04:32 | 44.49234 | 8.88382 | 37134 ft | 452 kts | 118° |
| 2026-05-04 04:33 | 44.46526 | 8.96318 | 37140 ft | 452 kts | 118° |
| 2026-05-04 04:33 | 44.43818 | 9.04198 | 37141 ft | 452 kts | 118° |
| 2026-05-04 04:34 | 44.41046 | 9.12152 | 37127 ft | 451 kts | 120° |
| 2026-05-04 04:34 | 44.38179 | 9.19950 | 37135 ft | 451 kts | 121° |
| 2026-05-04 04:35 | 44.35291 | 9.27661 | 37136 ft | 451 kts | 121° |
| 2026-05-04 04:35 | 44.32402 | 9.35427 | 37133 ft | 451 kts | 120° |
| 2026-05-04 04:36 | 44.29517 | 9.43198 | 37140 ft | 451 kts | 120° |
| 2026-05-04 04:36 | 44.26612 | 9.51012 | 37135 ft | 450 kts | 120° |
| 2026-05-04 04:37 | 44.20842 | 9.66445 | 37145 ft | 450 kts | 120° |
| 2026-05-04 04:38 | 44.17941 | 9.74169 | 37139 ft | 450 kts | 120° |
| 2026-05-04 04:38 | 44.15032 | 9.81894 | 37140 ft | 450 kts | 120° |
| 2026-05-04 04:39 | 44.12121 | 9.89605 | 37133 ft | 450 kts | 121° |
| 2026-05-04 04:39 | 44.09180 | 9.97371 | 37136 ft | 450 kts | 121° |
| 2026-05-04 04:40 | 44.06253 | 10.05071 | 37140 ft | 451 kts | 121° |
| 2026-05-04 04:40 | 44.03324 | 10.12774 | 37142 ft | 451 kts | 121° |
| 2026-05-04 04:41 | 44.00393 | 10.20469 | 37148 ft | 451 kts | 121° |
| 2026-05-04 04:41 | 43.97453 | 10.28156 | 37161 ft | 451 kts | 121° |
| 2026-05-04 04:42 | 43.94501 | 10.35830 | 37166 ft | 451 kts | 121° |
| 2026-05-04 04:42 | 43.91548 | 10.43503 | 37174 ft | 451 kts | 121° |
| 2026-05-04 04:43 | 43.88605 | 10.51129 | 37170 ft | 451 kts | 121° |
| 2026-05-04 04:43 | 43.85616 | 10.58839 | 37161 ft | 451 kts | 121° |
| 2026-05-04 04:44 | 43.82663 | 10.66444 | 37162 ft | 451 kts | 121° |
| 2026-05-04 04:44 | 43.79687 | 10.74095 | 37154 ft | 452 kts | 121° |
| 2026-05-04 04:45 | 43.76706 | 10.81752 | 37155 ft | 452 kts | 121° |
| 2026-05-04 04:47 | 43.66219 | 11.08472 | 37159 ft | 452 kts | 121° |
| 2026-05-04 04:47 | 43.63207 | 11.16088 | 37160 ft | 452 kts | 121° |
| 2026-05-04 04:48 | 43.60193 | 11.23707 | 37164 ft | 452 kts | 121° |
| 2026-05-04 04:49 | 43.52555 | 11.42647 | 37191 ft | 451 kts | 123° |
| 2026-05-04 04:49 | 43.49361 | 11.50083 | 37182 ft | 451 kts | 123° |
| 2026-05-04 04:50 | 43.46153 | 11.57489 | 37184 ft | 450 kts | 123° |
| 2026-05-04 04:50 | 43.42964 | 11.64908 | 37178 ft | 450 kts | 123° |
| 2026-05-04 04:51 | 43.39786 | 11.72338 | 37176 ft | 450 kts | 123° |
| 2026-05-04 04:51 | 43.36598 | 11.79753 | 37182 ft | 451 kts | 123° |
| 2026-05-04 04:52 | 43.33406 | 11.87156 | 37185 ft | 451 kts | 123° |
| 2026-05-04 04:52 | 43.30204 | 11.94563 | 37189 ft | 451 kts | 123° |
| 2026-05-04 04:53 | 43.26998 | 12.01954 | 37191 ft | 451 kts | 123° |
| 2026-05-04 04:53 | 43.23785 | 12.09346 | 37178 ft | 451 kts | 123° |
| 2026-05-04 04:54 | 43.20565 | 12.16729 | 37174 ft | 451 kts | 123° |
| 2026-05-04 04:54 | 43.17333 | 12.24111 | 37181 ft | 452 kts | 123° |
| 2026-05-04 04:55 | 43.14101 | 12.31483 | 37167 ft | 452 kts | 123° |
| 2026-05-04 04:55 | 43.10867 | 12.38857 | 37166 ft | 452 kts | 123° |
| 2026-05-04 04:56 | 43.07626 | 12.46222 | 37163 ft | 452 kts | 123° |
| 2026-05-04 04:56 | 43.04376 | 12.53580 | 37166 ft | 452 kts | 123° |
| 2026-05-04 04:57 | 43.01117 | 12.60934 | 37165 ft | 452 kts | 123° |
| 2026-05-04 04:57 | 42.97853 | 12.68281 | 37176 ft | 452 kts | 123° |
| 2026-05-04 04:58 | 42.94585 | 12.75630 | 37187 ft | 453 kts | 123° |
| 2026-05-04 04:58 | 42.91317 | 12.82977 | 37189 ft | 453 kts | 123° |
| 2026-05-04 04:59 | 42.88040 | 12.90318 | 37183 ft | 454 kts | 123° |
| 2026-05-04 04:59 | 42.84751 | 12.97656 | 37186 ft | 454 kts | 123° |
| 2026-05-04 05:00 | 42.81452 | 13.04990 | 37192 ft | 454 kts | 123° |
| 2026-05-04 05:01 | 42.76490 | 13.15991 | 37189 ft | 455 kts | 123° |
| 2026-05-04 05:01 | 42.73170 | 13.23321 | 37185 ft | 455 kts | 123° |
| 2026-05-04 05:02 | 42.69848 | 13.30654 | 37187 ft | 456 kts | 123° |
| 2026-05-04 05:02 | 42.66522 | 13.37986 | 37177 ft | 456 kts | 123° |
| 2026-05-04 05:03 | 42.63187 | 13.45311 | 37177 ft | 456 kts | 123° |
| 2026-05-04 05:04 | 42.57059 | 13.58709 | 37163 ft | 457 kts | 123° |
| 2026-05-04 05:04 | 42.53697 | 13.66032 | 37152 ft | 457 kts | 123° |
| 2026-05-04 05:06 | 42.40209 | 13.95279 | 37146 ft | 458 kts | 123° |
| 2026-05-04 05:07 | 42.36813 | 14.02586 | 37145 ft | 459 kts | 123° |
| 2026-05-04 05:07 | 42.33410 | 14.09885 | 37135 ft | 459 kts | 123° |
| 2026-05-04 05:09 | 42.18042 | 14.42696 | 37139 ft | 460 kts | 123° |
| 2026-05-04 05:10 | 42.14604 | 14.49980 | 37141 ft | 461 kts | 123° |
| 2026-05-04 05:10 | 42.11164 | 14.57257 | 37139 ft | 461 kts | 123° |
| 2026-05-04 05:11 | 42.07720 | 14.64533 | 37149 ft | 461 kts | 123° |
| 2026-05-04 05:11 | 42.04263 | 14.71796 | 37135 ft | 461 kts | 123° |
| 2026-05-04 05:12 | 42.00803 | 14.79058 | 37137 ft | 461 kts | 123° |
| 2026-05-04 05:12 | 41.97339 | 14.86314 | 37139 ft | 461 kts | 123° |
| 2026-05-04 05:13 | 41.93874 | 14.93566 | 37144 ft | 461 kts | 123° |
| 2026-05-04 05:13 | 41.90396 | 15.00821 | 37139 ft | 462 kts | 123° |
| 2026-05-04 05:14 | 41.86912 | 15.08067 | 37132 ft | 462 kts | 123° |
| 2026-05-04 05:14 | 41.83414 | 15.15316 | 37137 ft | 463 kts | 123° |
| 2026-05-04 05:15 | 41.79912 | 15.22552 | 37133 ft | 463 kts | 123° |
| 2026-05-04 05:15 | 41.76408 | 15.29792 | 37149 ft | 463 kts | 123° |
| 2026-05-04 05:16 | 41.72898 | 15.37027 | 37140 ft | 464 kts | 123° |
| 2026-05-04 05:16 | 41.69378 | 15.44267 | 37138 ft | 464 kts | 123° |
| 2026-05-04 05:17 | 41.65848 | 15.51506 | 37138 ft | 464 kts | 123° |
| 2026-05-04 05:17 | 41.62313 | 15.58731 | 37142 ft | 465 kts | 123° |
| 2026-05-04 05:18 | 41.58767 | 15.65954 | 37164 ft | 465 kts | 123° |
| 2026-05-04 05:18 | 41.55213 | 15.73182 | 37145 ft | 466 kts | 123° |
| 2026-05-04 05:19 | 41.51652 | 15.80421 | 37131 ft | 467 kts | 123° |
| 2026-05-04 05:19 | 41.48075 | 15.87646 | 37131 ft | 467 kts | 123° |
| 2026-05-04 05:20 | 41.44460 | 15.94775 | 37127 ft | 467 kts | 124° |
| 2026-05-04 05:20 | 41.40800 | 16.01928 | 37148 ft | 468 kts | 123° |
| 2026-05-04 05:21 | 41.37139 | 16.09099 | 37126 ft | 469 kts | 123° |
| 2026-05-04 05:21 | 41.33456 | 16.16330 | 37123 ft | 469 kts | 123° |
| 2026-05-04 05:22 | 41.29785 | 16.23514 | 37129 ft | 470 kts | 123° |
| 2026-05-04 05:22 | 41.26103 | 16.30691 | 37141 ft | 470 kts | 124° |
| 2026-05-04 05:23 | 41.22410 | 16.37863 | 37132 ft | 470 kts | 123° |
| 2026-05-04 05:23 | 41.18719 | 16.45038 | 37131 ft | 471 kts | 123° |
| 2026-05-04 05:24 | 41.15014 | 16.52218 | 37130 ft | 472 kts | 123° |
| 2026-05-04 05:24 | 41.11291 | 16.59388 | 37134 ft | 472 kts | 123° |
| 2026-05-04 05:25 | 41.07571 | 16.66557 | 37138 ft | 472 kts | 123° |
| 2026-05-04 05:25 | 41.03844 | 16.73727 | 37154 ft | 473 kts | 123° |
| 2026-05-04 05:26 | 41.00114 | 16.80902 | 37142 ft | 474 kts | 123° |
| 2026-05-04 05:26 | 40.96369 | 16.88080 | 37137 ft | 474 kts | 123° |
| 2026-05-04 05:28 | 40.81313 | 17.16719 | 37135 ft | 477 kts | 123° |
| 2026-05-04 05:29 | 40.77516 | 17.23900 | 37149 ft | 477 kts | 123° |
| 2026-05-04 05:29 | 40.73714 | 17.31077 | 37138 ft | 478 kts | 123° |
| 2026-05-04 05:31 | 40.58411 | 17.59801 | 37131 ft | 480 kts | 123° |
| 2026-05-04 05:32 | 40.54559 | 17.66991 | 37137 ft | 481 kts | 123° |
| 2026-05-04 05:33 | 40.48766 | 17.77766 | 37151 ft | 482 kts | 123° |
| 2026-05-04 05:33 | 40.44895 | 17.84957 | 37144 ft | 482 kts | 123° |
| 2026-05-04 05:34 | 40.41015 | 17.92136 | 37145 ft | 483 kts | 123° |
| 2026-05-04 05:34 | 40.37122 | 17.99327 | 37143 ft | 483 kts | 123° |
| 2026-05-04 05:35 | 40.33227 | 18.06497 | 37140 ft | 483 kts | 123° |
| 2026-05-04 05:35 | 40.29322 | 18.13668 | 37141 ft | 484 kts | 123° |
| 2026-05-04 05:36 | 40.25411 | 18.20847 | 37143 ft | 484 kts | 123° |
| 2026-05-04 05:36 | 40.21495 | 18.28000 | 37146 ft | 484 kts | 124° |
| 2026-05-04 05:37 | 40.17577 | 18.35159 | 37151 ft | 484 kts | 123° |
| 2026-05-04 05:37 | 40.13659 | 18.42318 | 37165 ft | 484 kts | 124° |
| 2026-05-04 05:38 | 40.07760 | 18.53032 | 37169 ft | 485 kts | 124° |
| 2026-05-04 05:38 | 40.03814 | 18.60169 | 37169 ft | 485 kts | 124° |
| 2026-05-04 05:39 | 39.97886 | 18.70879 | 37164 ft | 486 kts | 123° |
| 2026-05-04 05:40 | 39.91945 | 18.81595 | 37181 ft | 486 kts | 123° |
| 2026-05-04 05:40 | 39.87968 | 18.88720 | 37177 ft | 486 kts | 124° |
| 2026-05-04 05:41 | 39.83978 | 18.95839 | 37177 ft | 487 kts | 124° |
| 2026-05-04 05:41 | 39.80002 | 19.02955 | 37171 ft | 487 kts | 123° |
| 2026-05-04 05:42 | 39.76035 | 19.10088 | 37171 ft | 487 kts | 123° |
| 2026-05-04 05:42 | 39.72055 | 19.17201 | 37181 ft | 487 kts | 123° |
| 2026-05-04 05:43 | 39.68069 | 19.24309 | 37173 ft | 487 kts | 123° |
| 2026-05-04 05:45 | 39.52071 | 19.52687 | 37180 ft | 488 kts | 123° |
| 2026-05-04 05:47 | 39.36666 | 19.79771 | 37148 ft | 488 kts | 124° |
| 2026-05-04 05:47 | 39.32636 | 19.86837 | 37170 ft | 489 kts | 124° |
| 2026-05-04 05:48 | 39.28587 | 19.93901 | 37158 ft | 489 kts | 124° |
| 2026-05-04 05:48 | 39.24522 | 20.00950 | 37159 ft | 490 kts | 124° |
| 2026-05-04 05:49 | 39.20455 | 20.08007 | 37171 ft | 490 kts | 124° |
| 2026-05-04 05:49 | 39.16396 | 20.15062 | 37195 ft | 490 kts | 124° |
| 2026-05-04 05:51 | 39.00159 | 20.43355 | 37185 ft | 492 kts | 124° |
| 2026-05-04 05:52 | 38.96079 | 20.50428 | 37217 ft | 493 kts | 124° |
| 2026-05-04 05:52 | 38.91995 | 20.57501 | 37205 ft | 493 kts | 124° |
| 2026-05-04 05:54 | 38.75469 | 20.85682 | 37226 ft | 495 kts | 125° |
| 2026-05-04 05:55 | 38.71305 | 20.92692 | 37215 ft | 495 kts | 124° |
| 2026-05-04 05:55 | 38.67141 | 20.99715 | 37208 ft | 495 kts | 124° |
| 2026-05-04 05:56 | 38.62975 | 21.06725 | 37208 ft | 495 kts | 124° |
| 2026-05-04 05:56 | 38.58801 | 21.13721 | 37208 ft | 495 kts | 125° |
| 2026-05-04 05:57 | 38.54612 | 21.20715 | 37234 ft | 495 kts | 125° |
| 2026-05-04 05:57 | 38.50423 | 21.27695 | 37226 ft | 495 kts | 125° |
| 2026-05-04 05:58 | 38.46236 | 21.34664 | 37204 ft | 495 kts | 125° |
| 2026-05-04 05:58 | 38.42048 | 21.41632 | 37199 ft | 496 kts | 125° |
| 2026-05-04 05:59 | 38.37847 | 21.48602 | 37201 ft | 496 kts | 125° |
| 2026-05-04 05:59 | 38.33634 | 21.55572 | 37202 ft | 496 kts | 125° |
| 2026-05-04 06:00 | 38.29417 | 21.62539 | 37205 ft | 497 kts | 125° |
| 2026-05-04 06:00 | 38.25195 | 21.69498 | 37141 ft | 498 kts | 125° |
| 2026-05-04 06:01 | 38.23080 | 21.72978 | 36851 ft | 496 kts | 125° |
| 2026-05-04 06:01 | 38.20965 | 21.76449 | 36261 ft | 495 kts | 125° |
| 2026-05-04 06:03 | 38.06203 | 22.00603 | 32058 ft | 491 kts | 124° |
| 2026-05-04 06:03 | 38.04109 | 22.04012 | 31478 ft | 489 kts | 124° |
| 2026-05-04 06:05 | 37.89773 | 22.27284 | 27650 ft | 465 kts | 124° |
| 2026-05-04 06:05 | 37.85842 | 22.33630 | 26616 ft | 458 kts | 124° |
| 2026-05-04 06:05 | 37.83863 | 22.36818 | 26060 ft | 455 kts | 124° |
| 2026-05-04 06:06 | 37.81944 | 22.39903 | 25658 ft | 449 kts | 125° |
| 2026-05-04 06:06 | 37.79979 | 22.43055 | 25137 ft | 447 kts | 125° |
| 2026-05-04 06:06 | 37.78070 | 22.46120 | 24692 ft | 442 kts | 124° |
| 2026-05-04 06:06 | 37.76174 | 22.49171 | 24221 ft | 440 kts | 124° |
| 2026-05-04 06:07 | 37.74290 | 22.52200 | 23761 ft | 437 kts | 124° |
| 2026-05-04 06:07 | 37.72416 | 22.55210 | 23228 ft | 434 kts | 124° |
| 2026-05-04 06:07 | 37.70666 | 22.58278 | 22744 ft | 426 kts | 115° |
| 2026-05-04 06:07 | 37.69393 | 22.61549 | 22245 ft | 418 kts | 108° |
| 2026-05-04 06:08 | 37.68210 | 22.64885 | 21774 ft | 415 kts | 108° |
| 2026-05-04 06:08 | 37.67032 | 22.68190 | 21323 ft | 411 kts | 108° |
| 2026-05-04 06:08 | 37.65862 | 22.71463 | 20885 ft | 408 kts | 108° |
| 2026-05-04 06:08 | 37.64700 | 22.74712 | 20443 ft | 404 kts | 108° |
| 2026-05-04 06:09 | 37.63549 | 22.77930 | 20024 ft | 401 kts | 108° |
| 2026-05-04 06:09 | 37.62405 | 22.81125 | 19643 ft | 398 kts | 108° |
| 2026-05-04 06:11 | 37.54662 | 23.02658 | 16761 ft | 373 kts | 109° |
| 2026-05-04 06:11 | 37.53591 | 23.05622 | 16386 ft | 369 kts | 110° |
| 2026-05-04 06:13 | 37.49560 | 23.25765 | 13849 ft | 323 kts | 61° |
| 2026-05-04 06:14 | 37.55813 | 23.40360 | 11320 ft | 313 kts | 57° |
| 2026-05-04 06:14 | 37.56850 | 23.42774 | 10813 ft | 314 kts | 57° |
| 2026-05-04 06:15 | 37.57886 | 23.45186 | 10336 ft | 309 kts | 57° |
| 2026-05-04 06:15 | 37.58885 | 23.47518 | 9822 ft | 296 kts | 57° |
| 2026-05-04 06:15 | 37.59844 | 23.49761 | 9288 ft | 286 kts | 56° |
| 2026-05-04 06:15 | 37.60768 | 23.51920 | 8871 ft | 273 kts | 56° |
| 2026-05-04 06:16 | 37.61646 | 23.53969 | 8545 ft | 258 kts | 56° |
| 2026-05-04 06:16 | 37.62473 | 23.55902 | 8280 ft | 243 kts | 56° |
| 2026-05-04 06:16 | 37.63268 | 23.57748 | 7856 ft | 238 kts | 56° |
| 2026-05-04 06:16 | 37.64057 | 23.59573 | 7533 ft | 236 kts | 56° |
| 2026-05-04 06:17 | 37.64839 | 23.61390 | 7202 ft | 235 kts | 56° |
| 2026-05-04 06:17 | 37.65617 | 23.63197 | 6862 ft | 234 kts | 56° |
| 2026-05-04 06:17 | 37.66392 | 23.65003 | 6522 ft | 234 kts | 56° |
| 2026-05-04 06:17 | 37.67159 | 23.66802 | 6133 ft | 232 kts | 56° |
| 2026-05-04 06:18 | 37.67945 | 23.68569 | 5658 ft | 229 kts | 50° |
| 2026-05-04 06:18 | 37.69019 | 23.70010 | 5247 ft | 224 kts | 34° |
| 2026-05-04 06:18 | 37.70255 | 23.71187 | 4911 ft | 222 kts | 32° |
| 2026-05-04 06:20 | 37.78689 | 23.79129 | 3665 ft | 201 kts | 33° |
| 2026-05-04 06:20 | 37.79812 | 23.80190 | 3403 ft | 202 kts | 33° |
| 2026-05-04 06:21 | 37.83997 | 23.84152 | 2375 ft | 171 kts | 34° |
| 2026-05-04 06:21 | 37.84936 | 23.85042 | 2145 ft | 167 kts | 34° |
| 2026-05-04 06:22 | 37.85845 | 23.85903 | 1919 ft | 159 kts | 34° |
| 2026-05-04 06:22 | 37.86704 | 23.86718 | 1721 ft | 150 kts | 34° |
| 2026-05-04 06:25 | 37.93482 | 23.93438 | 301 ft | 14 kts | 216° |
| 2026-05-04 06:25 | 37.93407 | 23.93478 | 300 ft | 15 kts | 128° |
| 2026-05-04 06:26 | 37.93341 | 23.93590 | 301 ft | 17 kts | 127° |
| 2026-05-04 06:26 | 37.93263 | 23.93720 | 302 ft | 18 kts | 127° |
| 2026-05-04 06:26 | 37.93187 | 23.93848 | 303 ft | 17 kts | 127° |
| 2026-05-04 06:26 | 37.93129 | 23.93945 | 301 ft | 15 kts | 127° |
| 2026-05-04 06:27 | 37.93268 | 23.94313 | 302 ft | 7 kts | 127° |
| 2026-05-04 06:28 | 37.93241 | 23.94359 | 303 ft | 6 kts | 127° |
| 2026-05-04 06:28 | 37.93214 | 23.94402 | 302 ft | 6 kts | 134° |
| 2026-05-04 06:28 | 37.93177 | 23.94400 | 301 ft | 6 kts | 208° |
| 2026-05-04 06:28 | 37.93157 | 23.94382 | 301 ft | 4 kts | 217° |
| 2026-05-04 06:29 | 37.93141 | 23.94367 | 301 ft | 1 kts | 217° |